»·PEaware :: N149CD KVNY-KMYF

N149CD :: KVNY-KMYF

FLIGHT INFORMATION

Flight Status: Arrived
Operator: Privately registered:
United States
More flights under this callsign
Pilot: Nathan E. (30132)
Aircraft: CIRRUS VISIONJET
(SF50)
More flights by this aircraft type
Origin: KVNY Van Nuys
United States
Destination: KMYF Montgomery
United States
More flights between these airports :: More routes between these airports
Route: CANOG3 TWINE V518 KIMMO V459 SLI +SLI171+ LAX118 CARDI MZB320 MZB
File this flight plan on PilotEdge
Remarks: TEC route BURP30B
Altitude:
(Current/Filed)
11,000ft
Speed:
(Current/Filed)
300kts
Departed: 17-Dec-20 02:34 PM
Arrived: 17-Dec-20 03:13 PM
Distance/Time
Traveled:
107nm/0:39
Distance/Time
To Go:
Arrived

Flight Plot

Page will automatically refresh every two minutes.

Flight plan parsing failed; only flown route is shown


Map Options




Map Legend


Flown Route
Filed Route
Departure Airport
Arrival Airport
Navaid (VOR, NDB)
Fix

Horizontal Profiles

Position Reports

Time Latitude Longitude Heading Altitude Ground
Speed
17-Dec-20 13:58 34.208083 -118.491775 90 805ft 0kts
17-Dec-20 13:59 34.208083 -118.491775 90 805ft 0kts
17-Dec-20 14:00 34.208083 -118.491775 90 805ft 0kts
17-Dec-20 14:01 34.208083 -118.491775 90 805ft 0kts
17-Dec-20 14:02 34.208083 -118.491775 90 805ft 0kts
17-Dec-20 14:03 34.208083 -118.491775 90 805ft 0kts
17-Dec-20 14:04 34.208083 -118.491775 90 805ft 0kts
17-Dec-20 14:05 34.208083 -118.491775 90 805ft 0kts
17-Dec-20 14:06 34.208083 -118.491775 90 805ft 0kts
17-Dec-20 14:07 34.208083 -118.491775 90 805ft 0kts
17-Dec-20 14:08 34.208083 -118.491775 90 805ft 0kts
17-Dec-20 14:09 34.208083 -118.491775 90 805ft 0kts
17-Dec-20 14:10 34.208083 -118.491775 90 805ft 0kts
17-Dec-20 14:11 34.208083 -118.491775 90 805ft 0kts
17-Dec-20 14:12 34.208083 -118.491775 90 805ft 0kts
17-Dec-20 14:13 34.208083 -118.491775 90 805ft 0kts
17-Dec-20 14:14 34.208083 -118.491775 90 805ft 0kts
17-Dec-20 14:15 34.208083 -118.491775 90 805ft 0kts
17-Dec-20 14:16 34.208083 -118.491775 90 805ft 0kts
17-Dec-20 14:17 34.208083 -118.491775 90 805ft 0kts
17-Dec-20 14:18 34.208083 -118.491775 90 805ft 0kts
17-Dec-20 14:19 34.208083 -118.491775 90 805ft 0kts
17-Dec-20 14:20 34.208083 -118.491775 90 805ft 0kts
17-Dec-20 14:21 34.208083 -118.491775 90 805ft 0kts
17-Dec-20 14:22 34.208083 -118.491775 90 805ft 0kts
17-Dec-20 14:23 34.208083 -118.491775 90 805ft 0kts
17-Dec-20 14:24 34.208083 -118.491775 90 805ft 0kts
17-Dec-20 14:25 34.208083 -118.491775 90 805ft 0kts
17-Dec-20 14:26 34.208083 -118.491775 90 805ft 0kts
17-Dec-20 14:27 34.205152 -118.491100 176 805ft 18kts
17-Dec-20 14:28 34.200255 -118.490308 175 805ft 17kts
17-Dec-20 14:29 34.196688 -118.489946 16 805ft 0kts
17-Dec-20 14:30 34.196688 -118.489946 16 805ft 0kts
17-Dec-20 14:31 34.196688 -118.489946 16 805ft 0kts
17-Dec-20 14:32 34.197766 -118.489239 356 805ft 27kts
17-Dec-20 14:33 34.234132 -118.491085 0 2248ft 180kts
17-Dec-20 14:34 34.252364 -118.536933 264 5392ft 171kts
17-Dec-20 14:35 34.286500 -118.569693 21 8635ft 208kts
17-Dec-20 14:36 34.282435 -118.511072 131 11003ft 217kts
17-Dec-20 14:37 34.241231 -118.433454 127 11061ft 315kts
17-Dec-20 14:38 34.192270 -118.339173 127 11060ft 341kts
17-Dec-20 14:39 34.131182 -118.256889 159 11081ft 326kts
17-Dec-20 14:40 34.049679 -118.208185 160 11076ft 326kts
17-Dec-20 14:41 33.967743 -118.160782 160 11078ft 328kts
17-Dec-20 14:42 33.884893 -118.113090 160 11046ft 332kts
17-Dec-20 14:44 33.801621 -118.065274 161 11040ft 332kts
17-Dec-20 14:45 33.715151 -118.062913 188 11029ft 313kts
17-Dec-20 14:46 33.629567 -118.072217 201 11035ft 305kts
17-Dec-20 14:47 33.557052 -118.017207 136 11039ft 344kts
17-Dec-20 14:48 33.512234 -117.915458 112 11047ft 355kts
17-Dec-20 14:49 33.455212 -117.823633 137 11057ft 344kts
17-Dec-20 14:50 33.389394 -117.740415 139 11029ft 344kts
17-Dec-20 14:51 33.323517 -117.657235 138 11029ft 345kts
17-Dec-20 14:52 33.257470 -117.573920 138 11030ft 345kts
17-Dec-20 14:53 33.209329 -117.472435 121 11029ft 353kts
17-Dec-20 14:54 33.163982 -117.368362 121 11026ft 354kts
17-Dec-20 14:55 33.118642 -117.264019 121 11015ft 353kts
17-Dec-20 14:56 33.072996 -117.160369 121 11020ft 353kts
17-Dec-20 14:57 33.025765 -117.057125 121 11028ft 355kts
17-Dec-20 14:58 32.977585 -116.954201 121 11031ft 357kts
17-Dec-20 14:59 32.932685 -116.857684 121 10519ft 321kts
17-Dec-20 14:59 32.897030 -116.781189 120 9697ft 312kts
17-Dec-20 15:01 32.832533 -116.706113 199 8544ft 279kts
17-Dec-20 15:02 32.796009 -116.775690 253 7583ft 259kts
17-Dec-20 15:02 32.775912 -116.842314 236 6748ft 263kts
17-Dec-20 15:03 32.726726 -116.882522 247 5744ft 167kts
17-Dec-20 15:05 32.736462 -116.935877 290 4581ft 132kts
17-Dec-20 15:06 32.750855 -116.973433 291 3618ft 110kts
17-Dec-20 15:06 32.760054 -116.997317 292 2987ft 86kts
17-Dec-20 15:07 32.770467 -117.023774 291 2478ft 90kts
17-Dec-20 15:08 32.781191 -117.050915 291 1971ft 91kts
17-Dec-20 15:09 32.792080 -117.078505 291 1468ft 93kts
17-Dec-20 15:10 32.802981 -117.106151 291 963ft 92kts
17-Dec-20 15:11 32.813528 -117.132923 291 459ft 86kts
17-Dec-20 15:12 32.817520 -117.144974 205 414ft 6kts
17-Dec-20 15:13 32.817388 -117.145049 205 414ft 0kts
17-Dec-20 15:14 32.815531 -117.146083 205 412ft 0kts
17-Dec-20 15:15 32.815531 -117.146083 205 412ft 0kts
17-Dec-20 15:16 32.813624 -117.145708 153 411ft 7kts

Navigation Log

Ident Type
Flight plan parsing failed, navigation log unavailable